Time;durP1;ratioP1;P1;durP2;ratioP2;P2;SDS_P1;SDS_P2;PMS_P1;PMS_P2;Temp;Humidity;BMP_temperature;BMP_pressure;BME280_temperature;BME280_humidity;BME280_pressure;Samples;Min_cycle;Max_cycle;Signal;HPM_P1;HPM_P2
2023/04/29 00:02:06;;;;;;;91.03;50.03;;;;;;;;;;4998139;28;20045;-75
2023/04/29 00:04:33;;;;;;;90.78;50.28;;;;;;;;;;5017871;28;20048;-74
2023/04/29 00:06:59;;;;;;;73.15;43.17;;;;;;;;;;5021743;28;20049;-74
2023/04/29 00:09:25;;;;;;;71.50;43.28;;;;;;;;;;5013999;28;20961;-75
2023/04/29 00:11:51;;;;;;;78.63;44.60;;;;;;;;;;5014270;28;20033;-74
2023/04/29 00:14:17;;;;;;;75.03;44.20;;;;;;;;;;5017049;28;20151;-74
2023/04/29 00:16:43;;;;;;;80.35;43.95;;;;;;;;;;5008177;28;20088;-75
2023/04/29 00:19:10;;;;;;;74.45;44.60;;;;;;;;;;5020845;28;20158;-75
2023/04/29 00:21:36;;;;;;;67.55;42.42;;;;;;;;;;5020429;28;20045;-74
2023/04/29 00:24:02;;;;;;;77.13;44.97;;;;;;;;;;5022707;28;20555;-75
2023/04/29 00:26:28;;;;;;;77.35;44.33;;;;;;;;;;5015214;28;20139;-76
2023/04/29 00:28:54;;;;;;;68.38;42.65;;;;;;;;;;5007510;28;20437;-75
2023/04/29 00:31:20;;;;;;;81.82;44.15;;;;;;;;;;5008374;28;20103;-76
2023/04/29 00:33:46;;;;;;;79.20;42.72;;;;;;;;;;5020922;28;20437;-75
2023/04/29 00:36:12;;;;;;;75.20;42.22;;;;;;;;;;5019074;28;20127;-75
2023/04/29 00:38:38;;;;;;;80.22;43.50;;;;;;;;;;5014565;28;20093;-76
2023/04/29 00:41:04;;;;;;;76.40;42.80;;;;;;;;;;5015667;28;20103;-75
2023/04/29 00:43:30;;;;;;;79.95;42.60;;;;;;;;;;4995500;28;20045;-75
2023/04/29 00:45:56;;;;;;;76.80;43.88;;;;;;;;;;5014797;28;20148;-75
2023/04/29 00:48:22;;;;;;;73.80;43.00;;;;;;;;;;5012740;28;20034;-75
2023/04/29 00:50:50;;;;;;;79.00;44.35;;;;;;;;;;5013481;28;20063;-76
2023/04/29 00:53:16;;;;;;;78.28;42.38;;;;;;;;;;5013682;28;20046;-75
2023/04/29 00:55:43;;;;;;;80.85;43.05;;;;;;;;;;5013356;28;20084;-75
2023/04/29 00:58:10;;;;;;;76.85;43.50;;;;;;;;;;5012516;28;20077;-75
2023/04/29 01:00:37;;;;;;;72.95;41.80;;;;;;;;;;5013271;28;20064;-76
2023/04/29 01:03:04;;;;;;;80.00;43.15;;;;;;;;;;5019749;28;21173;-75
2023/04/29 01:05:30;;;;;;;78.35;43.22;;;;;;;;;;5012316;28;20685;-74
2023/04/29 01:08:23;;;;;;;67.88;39.88;;;;;;;;;;5016298;28;20053;-74
2023/04/29 01:10:54;;;;;;;62.75;38.35;;;;;;;;;;5015949;28;20437;-75
2023/04/29 01:13:23;;;;;;;76.50;41.10;;;;;;;;;;5020068;28;20482;-74
2023/04/29 01:15:57;;;;;;;67.75;39.22;;;;;;;;;;5021638;28;20076;-75
2023/04/29 01:18:29;;;;;;;69.10;39.33;;;;;;;;;;5020619;28;20054;-74
2023/04/29 01:20:55;;;;;;;76.90;40.08;;;;;;;;;;5023182;28;20034;-75
2023/04/29 01:23:25;;;;;;;66.95;39.10;;;;;;;;;;5024111;28;20437;-74
2023/04/29 01:25:51;;;;;;;67.05;38.35;;;;;;;;;;5018445;28;20056;-74
2023/04/29 01:28:17;;;;;;;67.60;38.35;;;;;;;;;;5020091;28;20065;-75
2023/04/29 01:30:50;;;;;;;74.78;39.28;;;;;;;;;;5016177;28;20132;-75
2023/04/29 01:33:27;;;;;;;61.92;36.53;;;;;;;;;;5013719;28;20102;-74
2023/04/29 01:36:05;;;;;;;63.20;37.08;;;;;;;;;;5017683;28;20037;-75
2023/04/29 01:38:51;;;;;;;64.05;34.25;;;;;;;;;;5017394;28;20056;-74
2023/04/29 01:41:29;;;;;;;58.33;32.70;;;;;;;;;;5017348;28;20853;-74
2023/04/29 01:43:56;;;;;;;58.97;33.67;;;;;;;;;;5014220;28;20409;-75
2023/04/29 01:46:22;;;;;;;50.65;31.80;;;;;;;;;;5017529;28;20625;-75
2023/04/29 01:48:48;;;;;;;56.38;31.90;;;;;;;;;;4999959;28;20124;-74
2023/04/29 01:51:14;;;;;;;53.40;31.45;;;;;;;;;;5017677;28;20156;-75
2023/04/29 01:53:40;;;;;;;60.28;31.40;;;;;;;;;;4997661;28;20045;-75
2023/04/29 01:56:06;;;;;;;56.33;30.25;;;;;;;;;;5016370;28;20477;-75
2023/04/29 01:58:32;;;;;;;57.85;30.25;;;;;;;;;;5015203;28;20371;-75
2023/04/29 02:00:58;;;;;;;43.92;27.65;;;;;;;;;;5013064;28;20106;-74
2023/04/29 02:03:24;;;;;;;49.25;28.65;;;;;;;;;;5014534;28;20033;-75
2023/04/29 02:05:51;;;;;;;44.78;27.10;;;;;;;;;;5011450;28;20041;-76
2023/04/29 02:08:17;;;;;;;47.35;27.30;;;;;;;;;;5017504;28;20109;-74
2023/04/29 02:10:53;;;;;;;50.20;28.50;;;;;;;;;;5030143;28;20071;-74
2023/04/29 02:13:19;;;;;;;51.25;29.42;;;;;;;;;;5016066;28;20140;-75
2023/04/29 02:15:45;;;;;;;47.22;28.45;;;;;;;;;;5018693;28;20053;-75
2023/04/29 02:18:11;;;;;;;48.88;29.00;;;;;;;;;;5013265;28;20041;-74
2023/04/29 02:20:37;;;;;;;48.95;29.98;;;;;;;;;;5013061;28;20087;-74
2023/04/29 02:23:03;;;;;;;47.78;29.00;;;;;;;;;;5013484;28;20127;-75
2023/04/29 02:25:29;;;;;;;47.38;29.10;;;;;;;;;;5016053;28;20774;-75
2023/04/29 02:27:55;;;;;;;49.13;30.45;;;;;;;;;;5015794;28;20057;-74
2023/04/29 02:30:21;;;;;;;50.67;29.75;;;;;;;;;;5016017;28;20096;-75
2023/04/29 02:32:47;;;;;;;61.28;30.40;;;;;;;;;;5031043;28;20159;-75
2023/04/29 02:35:13;;;;;;;49.53;28.80;;;;;;;;;;5016146;28;20053;-75
2023/04/29 02:37:39;;;;;;;47.35;28.65;;;;;;;;;;5015034;28;20049;-74
2023/04/29 02:40:06;;;;;;;47.92;29.75;;;;;;;;;;5013464;28;20042;-75
2023/04/29 02:42:32;;;;;;;51.85;30.38;;;;;;;;;;5014200;28;20553;-75
2023/04/29 02:44:58;;;;;;;55.65;30.17;;;;;;;;;;5011962;28;20145;-75
2023/04/29 02:47:24;;;;;;;49.50;29.70;;;;;;;;;;5013590;28;20463;-75
2023/04/29 02:49:50;;;;;;;48.25;29.60;;;;;;;;;;5013351;28;20377;-75
2023/04/29 02:52:16;;;;;;;46.83;28.63;;;;;;;;;;5013109;28;20049;-75
2023/04/29 02:54:42;;;;;;;48.53;30.15;;;;;;;;;;5013539;28;20049;-75
2023/04/29 02:57:09;;;;;;;48.13;30.00;;;;;;;;;;5013563;28;20042;-75
2023/04/29 02:59:35;;;;;;;49.83;30.52;;;;;;;;;;5015301;28;20045;-75
2023/04/29 03:02:01;;;;;;;54.83;31.17;;;;;;;;;;5010440;28;20072;-75
2023/04/29 03:04:27;;;;;;;53.28;30.95;;;;;;;;;;5012433;28;20056;-76
2023/04/29 03:06:55;;;;;;;53.28;29.75;;;;;;;;;;5013942;28;20427;-74
2023/04/29 03:09:22;;;;;;;48.15;29.38;;;;;;;;;;5017796;28;20069;-76
2023/04/29 03:11:48;;;;;;;47.30;28.02;;;;;;;;;;5013262;28;20041;-75
2023/04/29 03:14:14;;;;;;;45.15;27.92;;;;;;;;;;5014419;28;20045;-75
2023/04/29 03:16:41;;;;;;;47.65;28.42;;;;;;;;;;5021953;28;20168;-75
2023/04/29 03:19:07;;;;;;;52.50;29.02;;;;;;;;;;5020902;28;20072;-75
2023/04/29 03:21:33;;;;;;;50.13;28.88;;;;;;;;;;5011849;28;20049;-75
2023/04/29 03:23:59;;;;;;;57.58;29.60;;;;;;;;;;5021089;28;20099;-75
2023/04/29 03:26:25;;;;;;;52.47;28.45;;;;;;;;;;5021737;28;20524;-76
2023/04/29 03:28:51;;;;;;;52.05;28.25;;;;;;;;;;5013717;28;20046;-75
2023/04/29 03:31:19;;;;;;;53.20;28.30;;;;;;;;;;5016777;28;20059;-74
2023/04/29 03:33:45;;;;;;;49.63;29.98;;;;;;;;;;5017659;28;20456;-74
2023/04/29 03:36:12;;;;;;;53.22;30.67;;;;;;;;;;5015236;28;20139;-75
2023/04/29 03:38:38;;;;;;;53.22;29.52;;;;;;;;;;5013208;28;20038;-74
2023/04/29 03:41:04;;;;;;;50.50;29.20;;;;;;;;;;5013837;28;20056;-75
2023/04/29 03:43:30;;;;;;;53.13;29.88;;;;;;;;;;5015499;28;20049;-74
2023/04/29 03:45:56;;;;;;;55.15;30.77;;;;;;;;;;5015047;28;20761;-75
2023/04/29 03:48:22;;;;;;;56.35;29.95;;;;;;;;;;5015174;28;20056;-75
2023/04/29 03:50:48;;;;;;;56.55;30.23;;;;;;;;;;5012030;28;20041;-75
2023/04/29 03:53:14;;;;;;;49.10;27.42;;;;;;;;;;5016388;28;20041;-74
2023/04/29 03:55:40;;;;;;;51.58;27.58;;;;;;;;;;5014686;28;20060;-75
2023/04/29 03:58:06;;;;;;;52.10;27.08;;;;;;;;;;5016412;28;20203;-74
2023/04/29 04:00:32;;;;;;;45.55;25.05;;;;;;;;;;5013590;28;20057;-75
2023/04/29 04:02:58;;;;;;;47.92;25.75;;;;;;;;;;5016083;28;20505;-74
2023/04/29 04:05:25;;;;;;;43.58;22.73;;;;;;;;;;5013789;28;20049;-75
2023/04/29 04:07:52;;;;;;;39.00;22.88;;;;;;;;;;5014980;28;20056;-77
2023/04/29 04:10:18;;;;;;;37.42;22.23;;;;;;;;;;5012878;28;20136;-74
2023/04/29 04:12:44;;;;;;;34.10;20.15;;;;;;;;;;5012096;28;20079;-75
2023/04/29 04:15:10;;;;;;;34.85;19.95;;;;;;;;;;4999601;28;20183;-75
2023/04/29 04:17:36;;;;;;;32.92;19.30;;;;;;;;;;5014219;28;20037;-75
2023/04/29 04:20:03;;;;;;;36.38;20.08;;;;;;;;;;5013755;28;20048;-75
2023/04/29 04:22:29;;;;;;;32.53;19.00;;;;;;;;;;5013715;28;20073;-75
2023/04/29 04:24:55;;;;;;;33.38;19.30;;;;;;;;;;5011401;28;20133;-75
2023/04/29 04:27:21;;;;;;;33.78;18.85;;;;;;;;;;5016647;28;20083;-75
2023/04/29 04:29:47;;;;;;;31.20;18.95;;;;;;;;;;5024312;28;20041;-75
2023/04/29 04:32:13;;;;;;;32.50;18.70;;;;;;;;;;5021629;28;20061;-75
2023/04/29 04:34:40;;;;;;;36.80;18.58;;;;;;;;;;5024367;28;20103;-74
2023/04/29 04:37:06;;;;;;;33.03;18.38;;;;;;;;;;5000087;28;20055;-75
2023/04/29 04:39:32;;;;;;;31.67;18.92;;;;;;;;;;5034593;28;20118;-75
2023/04/29 04:41:58;;;;;;;32.45;18.45;;;;;;;;;;5018060;28;20785;-76
2023/04/29 04:44:24;;;;;;;33.70;18.75;;;;;;;;;;5018643;28;20040;-74
2023/04/29 04:46:51;;;;;;;37.78;18.73;;;;;;;;;;5031730;28;20054;-75
2023/04/29 04:49:17;;;;;;;31.90;19.42;;;;;;;;;;5016202;28;20046;-74
2023/04/29 04:51:46;;;;;;;31.27;19.25;;;;;;;;;;5018251;28;20041;-76
2023/04/29 04:54:12;;;;;;;34.28;19.40;;;;;;;;;;5021357;28;20774;-74
2023/04/29 04:56:38;;;;;;;30.95;17.98;;;;;;;;;;5016127;28;20052;-75
2023/04/29 04:59:04;;;;;;;35.45;19.15;;;;;;;;;;5034481;28;20042;-76
2023/04/29 05:01:30;;;;;;;32.33;18.70;;;;;;;;;;5017626;28;20041;-74
2023/04/29 05:03:56;;;;;;;32.05;17.77;;;;;;;;;;5016948;28;21237;-75
2023/04/29 05:06:23;;;;;;;30.52;18.73;;;;;;;;;;5025585;28;20049;-76
2023/04/29 05:08:48;;;;;;;33.58;19.23;;;;;;;;;;5016473;28;20044;-75
2023/04/29 05:11:16;;;;;;;34.63;19.35;;;;;;;;;;5026379;28;20045;-74
2023/04/29 05:13:42;;;;;;;32.60;19.70;;;;;;;;;;5022418;28;20525;-75
2023/04/29 05:16:08;;;;;;;32.00;19.15;;;;;;;;;;5012456;28;20041;-76
2023/04/29 05:18:35;;;;;;;31.25;19.48;;;;;;;;;;5010627;28;20125;-76
2023/04/29 05:21:01;;;;;;;31.00;19.60;;;;;;;;;;5018392;28;20053;-75
2023/04/29 05:23:27;;;;;;;32.25;20.77;;;;;;;;;;5014638;28;20079;-76
2023/04/29 05:25:53;;;;;;;33.80;20.15;;;;;;;;;;5019895;28;20073;-77
2023/04/29 05:28:19;;;;;;;31.95;19.15;;;;;;;;;;5020617;28;20144;-77
2023/04/29 05:30:46;;;;;;;34.17;19.13;;;;;;;;;;5018239;28;20390;-75
2023/04/29 05:33:12;;;;;;;31.85;19.33;;;;;;;;;;5016917;28;20050;-76
2023/04/29 05:35:38;;;;;;;29.13;19.13;;;;;;;;;;5018697;28;20746;-76
2023/04/29 05:38:04;;;;;;;30.83;18.92;;;;;;;;;;5020459;28;20034;-75
2023/04/29 05:40:30;;;;;;;28.15;19.00;;;;;;;;;;5013794;28;21184;-75
2023/04/29 05:42:56;;;;;;;30.15;18.63;;;;;;;;;;5016552;28;20047;-74
2023/04/29 05:45:22;;;;;;;32.55;18.65;;;;;;;;;;5014956;28;20048;-75
2023/04/29 05:47:48;;;;;;;28.67;18.35;;;;;;;;;;4998854;28;20056;-76
2023/04/29 05:50:14;;;;;;;27.35;18.60;;;;;;;;;;5015732;28;20052;-75
2023/04/29 05:52:40;;;;;;;27.15;18.00;;;;;;;;;;5014520;28;20550;-76
2023/04/29 05:55:06;;;;;;;28.33;17.30;;;;;;;;;;5017020;28;20056;-76
2023/04/29 05:57:32;;;;;;;26.13;17.17;;;;;;;;;;5015154;28;20091;-75
2023/04/29 05:59:59;;;;;;;29.10;17.00;;;;;;;;;;5015314;28;20452;-75
2023/04/29 06:02:25;;;;;;;27.25;17.92;;;;;;;;;;5014555;28;20082;-75
2023/04/29 06:04:51;;;;;;;26.65;16.98;;;;;;;;;;5013278;28;20045;-75
2023/04/29 06:07:17;;;;;;;24.35;16.25;;;;;;;;;;5012203;28;20088;-75
2023/04/29 06:09:43;;;;;;;31.42;16.55;;;;;;;;;;5010647;28;20507;-75
2023/04/29 06:12:10;;;;;;;23.30;15.43;;;;;;;;;;5016357;28;20038;-75
2023/04/29 06:14:36;;;;;;;21.52;15.30;;;;;;;;;;5017560;28;20524;-74
2023/04/29 06:17:02;;;;;;;27.70;15.45;;;;;;;;;;5004357;28;20128;-75
2023/04/29 06:19:35;;;;;;;24.67;15.05;;;;;;;;;;5012270;28;20501;-76
2023/04/29 06:22:04;;;;;;;23.75;13.75;;;;;;;;;;5009610;28;20048;-75
2023/04/29 06:24:30;;;;;;;;;;;;;;;;;;5015417;28;20052;-75
2023/04/29 06:26:59;;;;;;;19.60;13.10;;;;;;;;;;5008324;28;19932;-74
2023/04/29 06:29:25;;;;;;;22.23;14.45;;;;;;;;;;5011227;28;20053;-76
2023/04/29 06:31:52;;;;;;;19.45;13.48;;;;;;;;;;5013083;28;20478;-76
2023/04/29 06:34:19;;;;;;;18.80;13.35;;;;;;;;;;5010554;28;20045;-77
2023/04/29 06:36:45;;;;;;;18.90;13.23;;;;;;;;;;5015875;28;20459;-76
2023/04/29 06:39:11;;;;;;;23.17;13.38;;;;;;;;;;5012072;28;20132;-73
2023/04/29 06:41:37;;;;;;;21.40;12.80;;;;;;;;;;5013538;28;20060;-75
2023/04/29 06:44:03;;;;;;;19.75;13.10;;;;;;;;;;5011966;28;20049;-75
2023/04/29 06:46:29;;;;;;;18.27;11.90;;;;;;;;;;5010241;28;20132;-75
2023/04/29 06:48:55;;;;;;;20.23;12.63;;;;;;;;;;5010056;28;20076;-74
2023/04/29 06:51:24;;;;;;;21.77;12.70;;;;;;;;;;5009981;28;20136;-74
2023/04/29 06:53:50;;;;;;;18.90;12.20;;;;;;;;;;4991973;28;20056;-74
2023/04/29 06:56:16;;;;;;;19.13;12.50;;;;;;;;;;5013782;28;20041;-74
2023/04/29 06:58:42;;;;;;;19.48;11.98;;;;;;;;;;5009734;28;20037;-75
2023/04/29 07:01:09;;;;;;;17.73;11.70;;;;;;;;;;5010934;28;20064;-74
2023/04/29 07:03:38;;;;;;;16.85;11.93;;;;;;;;;;5014469;28;20049;-73
2023/04/29 07:06:04;;;;;;;21.52;11.43;;;;;;;;;;4994085;28;20116;-74
2023/04/29 07:08:31;;;;;;;19.88;11.27;;;;;;;;;;5012580;28;20046;-75
2023/04/29 07:10:57;;;;;;;21.60;11.45;;;;;;;;;;5010815;28;20516;-74
2023/04/29 07:13:24;;;;;;;17.60;10.95;;;;;;;;;;5013374;28;20104;-75
2023/04/29 07:15:50;;;;;;;15.93;10.13;;;;;;;;;;5013645;28;20521;-75
2023/04/29 07:18:16;;;;;;;16.50;10.38;;;;;;;;;;5009450;28;20049;-75
2023/04/29 07:20:43;;;;;;;15.27;10.23;;;;;;;;;;5012219;28;20100;-74
2023/04/29 07:23:09;;;;;;;17.38;10.32;;;;;;;;;;5012714;28;20115;-74
2023/04/29 07:25:35;;;;;;;13.10;10.02;;;;;;;;;;5012826;28;20049;-75
2023/04/29 07:28:01;;;;;;;18.70;10.73;;;;;;;;;;5029395;28;20080;-74
2023/04/29 07:30:27;;;;;;;14.75;10.05;;;;;;;;;;5032786;28;20049;-75
2023/04/29 07:32:53;;;;;;;17.75;9.68;;;;;;;;;;5017782;28;20152;-74
2023/04/29 07:35:19;;;;;;;15.18;9.93;;;;;;;;;;5021053;28;20056;-75
2023/04/29 07:37:45;;;;;;;17.13;9.70;;;;;;;;;;5018207;28;20079;-75
2023/04/29 07:40:12;;;;;;;14.07;9.45;;;;;;;;;;5037945;28;20033;-75
2023/04/29 07:42:38;;;;;;;13.73;8.85;;;;;;;;;;5016010;28;20809;-75
2023/04/29 07:45:04;;;;;;;16.85;9.50;;;;;;;;;;5016357;28;20041;-75
2023/04/29 07:47:30;;;;;;;13.25;9.23;;;;;;;;;;5035012;28;20087;-76
2023/04/29 07:49:57;;;;;;;14.40;9.48;;;;;;;;;;5030088;28;20053;-76
2023/04/29 07:52:23;;;;;;;15.82;9.48;;;;;;;;;;5038394;28;20045;-76
2023/04/29 07:54:49;;;;;;;19.67;9.55;;;;;;;;;;5013674;28;20156;-76
2023/04/29 07:57:15;;;;;;;12.98;9.00;;;;;;;;;;5033246;28;20037;-76
2023/04/29 07:59:41;;;;;;;13.05;8.98;;;;;;;;;;5031560;28;20092;-74
2023/04/29 08:02:07;;;;;;;14.93;9.18;;;;;;;;;;5028327;28;20623;-76
2023/04/29 08:04:33;;;;;;;13.38;9.27;;;;;;;;;;5035618;28;20132;-75
2023/04/29 08:06:59;;;;;;;15.00;9.82;;;;;;;;;;5000024;28;20049;-76
2023/04/29 08:09:25;;;;;;;12.02;9.10;;;;;;;;;;5030528;28;20068;-75
2023/04/29 08:11:51;;;;;;;12.63;9.25;;;;;;;;;;5032119;28;20067;-76
2023/04/29 08:14:17;;;;;;;17.67;9.68;;;;;;;;;;5030130;28;20456;-75
2023/04/29 08:16:43;;;;;;;19.38;10.00;;;;;;;;;;5018610;28;20075;-74
2023/04/29 08:19:10;;;;;;;15.13;9.63;;;;;;;;;;5028133;28;20040;-74
2023/04/29 08:21:36;;;;;;;15.20;9.57;;;;;;;;;;5029976;28;20606;-75
2023/04/29 08:24:02;;;;;;;15.93;10.52;;;;;;;;;;5021269;28;20052;-76
2023/04/29 08:26:29;;;;;;;18.73;11.02;;;;;;;;;;5035419;28;20144;-75
2023/04/29 08:28:55;;;;;;;17.75;10.32;;;;;;;;;;5030038;28;20512;-76
2023/04/29 08:31:21;;;;;;;15.65;10.95;;;;;;;;;;5017155;28;20032;-75
2023/04/29 08:33:48;;;;;;;19.10;10.48;;;;;;;;;;5015617;28;20064;-76
2023/04/29 08:36:14;;;;;;;16.13;10.07;;;;;;;;;;5031969;28;20048;-75
2023/04/29 08:38:41;;;;;;;17.08;10.43;;;;;;;;;;5031880;28;20095;-75
2023/04/29 08:41:08;;;;;;;17.80;9.77;;;;;;;;;;5017112;28;20049;-75
2023/04/29 08:43:36;;;;;;;14.63;9.95;;;;;;;;;;5017363;28;20114;-75
2023/04/29 08:46:03;;;;;;;14.23;8.82;;;;;;;;;;5028673;28;20064;-74
2023/04/29 08:48:29;;;;;;;14.73;9.35;;;;;;;;;;5018534;28;20161;-74
2023/04/29 08:50:57;;;;;;;17.08;9.07;;;;;;;;;;5026927;28;20728;-76
2023/04/29 08:53:23;;;;;;;15.60;10.33;;;;;;;;;;5013760;28;20041;-74
2023/04/29 08:55:49;;;;;;;14.50;8.73;;;;;;;;;;5018175;28;20052;-74
2023/04/29 08:58:16;;;;;;;13.20;8.90;;;;;;;;;;5011694;28;20087;-73
2023/04/29 09:00:43;;;;;;;12.90;8.88;;;;;;;;;;5003031;28;20076;-74
2023/04/29 09:03:23;;;;;;;14.38;8.65;;;;;;;;;;5019593;28;20040;-75
2023/04/29 09:05:52;;;;;;;12.95;8.70;;;;;;;;;;5014628;28;20057;-76
2023/04/29 09:08:20;;;;;;;16.17;8.32;;;;;;;;;;5034715;28;20383;-75
2023/04/29 09:10:46;;;;;;;10.05;7.57;;;;;;;;;;5013563;28;20068;-73
2023/04/29 09:13:24;;;;;;;14.25;8.10;;;;;;;;;;5020640;28;20037;-74
2023/04/29 09:15:50;;;;;;;13.45;8.52;;;;;;;;;;5029556;28;20048;-74
2023/04/29 09:18:35;;;;;;;17.85;8.23;;;;;;;;;;5032797;28;20033;-75
2023/04/29 09:21:12;;;;;;;14.13;7.60;;;;;;;;;;5030514;28;20548;-75
2023/04/29 09:23:38;;;;;;;15.20;8.80;;;;;;;;;;5033462;28;20655;-76
2023/04/29 09:26:04;;;;;;;15.27;8.55;;;;;;;;;;5021288;28;20191;-74
2023/04/29 09:28:30;;;;;;;14.90;7.85;;;;;;;;;;5035365;28;20080;-76
2023/04/29 09:30:56;;;;;;;16.08;8.80;;;;;;;;;;5035584;28;20222;-73
2023/04/29 09:33:24;;;;;;;15.45;8.85;;;;;;;;;;5041481;28;20136;-74
2023/04/29 09:35:51;;;;;;;13.27;9.00;;;;;;;;;;5021433;28;20603;-74
2023/04/29 09:38:18;;;;;;;15.65;8.15;;;;;;;;;;5023031;28;20149;-75
2023/04/29 09:40:44;;;;;;;14.32;8.70;;;;;;;;;;5021486;28;20055;-73
2023/04/29 09:43:18;;;;;;;15.18;8.52;;;;;;;;;;5021427;28;20037;-75
2023/04/29 09:45:46;;;;;;;16.52;8.93;;;;;;;;;;5020628;28;20597;-72
2023/04/29 09:48:12;;;;;;;16.67;8.30;;;;;;;;;;5022626;28;20049;-74
2023/04/29 09:50:38;;;;;;;13.68;8.32;;;;;;;;;;5017684;28;20091;-73
2023/04/29 09:53:08;;;;;;;11.60;7.88;;;;;;;;;;5021585;28;20055;-73
2023/04/29 09:55:35;;;;;;;12.38;8.00;;;;;;;;;;5019493;28;20052;-74
2023/04/29 09:58:01;;;;;;;11.30;7.30;;;;;;;;;;5041035;28;20099;-74
2023/04/29 10:00:32;;;;;;;13.13;6.95;;;;;;;;;;5033293;28;20504;-74
2023/04/29 10:02:59;;;;;;;13.30;7.28;;;;;;;;;;5040347;28;20052;-74
2023/04/29 10:05:27;;;;;;;11.95;6.85;;;;;;;;;;5039911;28;20052;-74
2023/04/29 10:07:53;;;;;;;11.80;6.85;;;;;;;;;;5018564;28;20057;-72
2023/04/29 10:10:20;;;;;;;14.93;7.13;;;;;;;;;;5022912;28;20049;-74
2023/04/29 10:12:47;;;;;;;11.07;6.53;;;;;;;;;;5017027;28;20041;-75
2023/04/29 10:15:20;;;;;;;13.27;7.35;;;;;;;;;;5002106;28;20064;-74
2023/04/29 10:17:48;;;;;;;11.50;6.60;;;;;;;;;;5020803;28;20041;-74
2023/04/29 10:20:15;;;;;;;10.85;6.57;;;;;;;;;;5018392;28;20044;-75
2023/04/29 10:22:48;;;;;;;12.38;6.97;;;;;;;;;;5039013;28;20033;-74
2023/04/29 10:25:20;;;;;;;10.25;6.97;;;;;;;;;;5014285;28;20053;-73
2023/04/29 10:27:47;;;;;;;17.33;6.60;;;;;;;;;;5020364;28;20517;-75
2023/04/29 10:30:14;;;;;;;10.93;6.70;;;;;;;;;;5037902;28;20041;-74
2023/04/29 10:32:41;;;;;;;15.98;6.22;;;;;;;;;;5017979;28;20048;-75
2023/04/29 10:35:09;;;;;;;9.55;5.90;;;;;;;;;;5018199;28;20072;-74
2023/04/29 10:37:36;;;;;;;11.63;6.07;;;;;;;;;;5020554;28;20118;-75
2023/04/29 10:40:21;;;;;;;9.95;6.25;;;;;;;;;;5003090;28;20116;-75
2023/04/29 10:42:51;;;;;;;10.45;6.55;;;;;;;;;;5018982;28;20144;-74
2023/04/29 10:45:28;;;;;;;11.32;6.28;;;;;;;;;;5017905;28;20530;-75
2023/04/29 10:48:09;;;;;;;11.38;6.78;;;;;;;;;;5022728;28;20635;-74
2023/04/29 10:50:48;;;;;;;13.85;6.90;;;;;;;;;;5017994;28;20164;-73
2023/04/29 10:53:14;;;;;;;11.07;6.10;;;;;;;;;;5007142;28;20037;-75
2023/04/29 10:55:41;;;;;;;10.70;5.72;;;;;;;;;;5034905;28;20064;-74
2023/04/29 10:58:25;;;;;;;10.40;6.50;;;;;;;;;;5020043;28;20505;-74
2023/04/29 11:00:52;;;;;;;9.32;5.32;;;;;;;;;;5016239;28;20041;-74
2023/04/29 11:03:37;;;;;;;8.23;5.45;;;;;;;;;;5017239;28;20540;-74
2023/04/29 11:06:10;;;;;;;12.85;5.75;;;;;;;;;;5003283;28;20048;-73
2023/04/29 11:08:39;;;;;;;9.20;5.35;;;;;;;;;;5001763;28;20641;-73
2023/04/29 11:11:05;;;;;;;9.48;5.00;;;;;;;;;;5019756;28;20059;-74
2023/04/29 11:13:37;;;;;;;12.15;4.82;;;;;;;;;;5039444;28;20060;-74
2023/04/29 11:16:04;;;;;;;10.63;4.47;;;;;;;;;;5014402;28;20080;-74
2023/04/29 11:18:30;;;;;;;10.45;5.03;;;;;;;;;;5039962;28;20132;-74
2023/04/29 11:21:05;;;;;;;9.82;6.18;;;;;;;;;;5037091;28;20041;-74
2023/04/29 11:23:41;;;;;;;9.25;6.28;;;;;;;;;;5021692;28;20532;-75
2023/04/29 11:26:07;;;;;;;10.63;6.05;;;;;;;;;;5030011;28;20088;-75
2023/04/29 11:28:33;;;;;;;8.75;5.18;;;;;;;;;;5014530;28;20077;-75
2023/04/29 11:31:00;;;;;;;10.07;5.20;;;;;;;;;;5012219;28;20147;-74
2023/04/29 11:33:26;;;;;;;11.18;5.20;;;;;;;;;;5023021;28;20409;-75
2023/04/29 11:35:53;;;;;;;9.07;4.85;;;;;;;;;;5020520;28;20167;-75
2023/04/29 11:38:29;;;;;;;9.43;4.65;;;;;;;;;;5022598;28;20045;-75
2023/04/29 11:40:55;;;;;;;9.10;4.50;;;;;;;;;;5017063;28;20038;-74
2023/04/29 11:43:22;;;;;;;7.05;3.63;;;;;;;;;;5019870;28;20147;-75
2023/04/29 11:45:50;;;;;;;9.02;3.72;;;;;;;;;;5016081;28;20045;-76
2023/04/29 11:48:23;;;;;;;7.00;4.00;;;;;;;;;;5010918;28;20133;-78
2023/04/29 11:51:05;;;;;;;6.82;3.67;;;;;;;;;;5020932;28;20053;-77
2023/04/29 11:53:31;;;;;;;7.25;3.40;;;;;;;;;;5002695;28;20049;-77
2023/04/29 11:56:01;;;;;;;4.93;2.80;;;;;;;;;;5032351;28;20037;-75
2023/04/29 11:58:27;;;;;;;6.43;2.80;;;;;;;;;;5031128;28;20111;-76
2023/04/29 12:00:54;;;;;;;8.82;2.70;;;;;;;;;;5017271;28;20136;-74
2023/04/29 12:03:20;;;;;;;3.83;2.10;;;;;;;;;;5020185;28;20033;-73
2023/04/29 12:05:48;;;;;;;8.75;2.30;;;;;;;;;;4994420;28;20045;-73
2023/04/29 12:08:14;;;;;;;6.43;2.85;;;;;;;;;;5012529;28;20467;-74
2023/04/29 12:10:41;;;;;;;3.90;2.38;;;;;;;;;;5028301;28;20037;-72
2023/04/29 12:13:08;;;;;;;5.45;2.90;;;;;;;;;;5032812;28;20045;-73
2023/04/29 12:15:34;;;;;;;6.80;2.80;;;;;;;;;;5019048;28;20485;-72
2023/04/29 12:18:00;;;;;;;6.13;2.90;;;;;;;;;;5040505;28;20057;-72
2023/04/29 12:20:28;;;;;;;6.40;3.20;;;;;;;;;;5025083;28;20053;-73
2023/04/29 12:22:54;;;;;;;8.10;3.10;;;;;;;;;;5021277;28;20040;-73
2023/04/29 12:25:24;;;;;;;4.85;2.63;;;;;;;;;;5033308;28;20060;-72
2023/04/29 12:27:51;;;;;;;9.13;3.10;;;;;;;;;;5026976;28;20049;-74
2023/04/29 12:30:17;;;;;;;6.15;3.22;;;;;;;;;;5036132;28;20106;-74
2023/04/29 12:32:44;;;;;;;4.57;2.53;;;;;;;;;;5019203;28;20057;-72
2023/04/29 12:35:17;;;;;;;5.20;2.50;;;;;;;;;;5032339;28;20123;-72
2023/04/29 12:37:43;;;;;;;5.18;2.60;;;;;;;;;;5033989;28;20056;-72
2023/04/29 12:40:14;;;;;;;8.32;2.55;;;;;;;;;;5030385;28;20037;-72
2023/04/29 12:42:40;;;;;;;8.25;2.40;;;;;;;;;;5033684;28;20087;-72
2023/04/29 12:45:06;;;;;;;5.22;2.40;;;;;;;;;;5032967;28;20048;-73
2023/04/29 12:47:36;;;;;;;6.50;2.00;;;;;;;;;;5029752;28;20132;-75
2023/04/29 12:50:02;;;;;;;4.55;2.03;;;;;;;;;;5018867;28;21727;-74
2023/04/29 12:52:28;;;;;;;5.60;2.28;;;;;;;;;;5031347;28;20444;-73
2023/04/29 12:54:56;;;;;;;4.70;2.30;;;;;;;;;;5031792;28;20056;-73
2023/04/29 12:57:24;;;;;;;6.40;2.40;;;;;;;;;;5034506;28;20207;-73
2023/04/29 12:59:49;;;;;;;8.68;2.85;;;;;;;;;;5027686;28;20166;-74
2023/04/29 13:02:16;;;;;;;7.03;2.85;;;;;;;;;;5000119;28;20825;-74
2023/04/29 13:04:42;;;;;;;7.18;3.22;;;;;;;;;;5038963;28;20040;-73
2023/04/29 13:07:08;;;;;;;6.88;2.70;;;;;;;;;;5019130;28;20515;-72
2023/04/29 13:09:36;;;;;;;7.80;2.80;;;;;;;;;;5032067;28;20124;-73
2023/04/29 13:12:02;;;;;;;4.68;2.50;;;;;;;;;;5021270;28;20076;-74
2023/04/29 13:14:28;;;;;;;4.03;2.08;;;;;;;;;;5018547;28;20144;-74
2023/04/29 13:16:54;;;;;;;3.55;2.00;;;;;;;;;;5023910;28;20051;-74
2023/04/29 13:19:21;;;;;;;5.32;2.00;;;;;;;;;;5033390;28;20049;-74
2023/04/29 13:21:47;;;;;;;5.43;2.10;;;;;;;;;;5038781;28;20041;-74
2023/04/29 13:24:13;;;;;;;3.13;1.77;;;;;;;;;;5034973;28;20390;-74
2023/04/29 13:26:39;;;;;;;3.35;1.70;;;;;;;;;;5011127;28;20057;-74
2023/04/29 13:29:05;;;;;;;6.10;1.92;;;;;;;;;;5031318;28;20108;-74
2023/04/29 13:31:31;;;;;;;7.13;1.70;;;;;;;;;;5026982;28;20045;-74
2023/04/29 13:33:57;;;;;;;2.63;1.50;;;;;;;;;;5038311;28;20029;-75
2023/04/29 13:36:23;;;;;;;3.28;1.40;;;;;;;;;;5018480;28;20045;-75
2023/04/29 13:38:49;;;;;;;3.33;1.73;;;;;;;;;;5022638;28;20029;-74
2023/04/29 13:41:15;;;;;;;4.10;1.60;;;;;;;;;;5012753;28;20049;-75
2023/04/29 13:43:41;;;;;;;4.03;1.77;;;;;;;;;;5018250;28;20051;-75
2023/04/29 13:46:08;;;;;;;2.65;1.50;;;;;;;;;;5019839;28;20048;-74
2023/04/29 13:48:34;;;;;;;4.03;1.40;;;;;;;;;;5029837;28;20048;-73
2023/04/29 13:51:00;;;;;;;3.70;1.42;;;;;;;;;;5032851;28;20397;-75
2023/04/29 13:53:26;;;;;;;3.13;1.60;;;;;;;;;;5036112;28;20041;-73
2023/04/29 13:55:52;;;;;;;2.92;1.70;;;;;;;;;;5015421;28;20049;-74
2023/04/29 13:58:18;;;;;;;5.18;1.85;;;;;;;;;;5020471;28;20056;-73
2023/04/29 14:00:44;;;;;;;5.25;2.20;;;;;;;;;;4999821;28;21044;-75
2023/04/29 14:03:10;;;;;;;5.75;2.15;;;;;;;;;;5035513;28;20218;-75
2023/04/29 14:05:36;;;;;;;6.28;2.88;;;;;;;;;;5019930;28;20044;-73
2023/04/29 14:08:02;;;;;;;6.22;3.97;;;;;;;;;;5019577;28;20041;-73
2023/04/29 14:10:28;;;;;;;5.95;4.03;;;;;;;;;;5021465;28;20712;-73
2023/04/29 14:12:54;;;;;;;5.20;4.22;;;;;;;;;;5025230;28;20090;-74
2023/04/29 14:15:20;;;;;;;8.32;4.20;;;;;;;;;;5018007;28;20049;-74
2023/04/29 14:17:48;;;;;;;6.85;4.40;;;;;;;;;;5021587;28;20043;-74
2023/04/29 14:20:15;;;;;;;7.93;4.35;;;;;;;;;;5023809;28;20041;-73
2023/04/29 14:22:41;;;;;;;9.05;5.95;;;;;;;;;;5040069;28;20065;-73
2023/04/29 14:25:07;;;;;;;9.07;5.10;;;;;;;;;;5021547;28;20141;-73
2023/04/29 14:27:34;;;;;;;9.70;5.40;;;;;;;;;;5021010;28;20083;-73